createdAt,value
2023-03-26T00:01:25.465Z,97239.91
2023-03-26T00:05:27.795Z,97242.25
2023-03-26T00:09:29.842Z,97253.41
2023-03-26T00:13:33.153Z,97254.16
2023-03-26T00:17:35.157Z,97257.25
2023-03-26T00:21:37.273Z,97255.28
2023-03-26T00:25:41.418Z,97253.44
2023-03-26T00:29:43.472Z,97256.84
2023-03-26T00:33:45.581Z,97259.31
2023-03-26T00:37:47.828Z,97249.94
2023-03-26T00:41:54.222Z,97246.66
2023-03-26T00:45:56.790Z,97233.13
2023-03-26T00:49:59.280Z,97236.91
2023-03-26T00:54:01.447Z,97229.38
2023-03-26T00:58:03.548Z,97230.25
2023-03-26T01:02:10.546Z,97231.47
2023-03-26T01:06:19.685Z,97227.66
2023-03-26T01:10:22.646Z,97231.31
2023-03-26T01:14:26.793Z,97222.41
2023-03-26T01:18:34.156Z,97223.78
2023-03-26T01:22:37.637Z,97228.34
2023-03-26T01:26:58.651Z,97229.25
2023-03-26T01:31:17.267Z,97215.63
2023-03-26T01:35:28.488Z,97211.34
2023-03-26T01:40:06.887Z,97206.88
2023-03-26T01:44:23.385Z,97200.69
2023-03-26T01:48:31.757Z,97198.84
2023-03-26T01:52:33.878Z,97192.44
2023-03-26T01:56:43.785Z,97189.75
2023-03-26T02:01:02.002Z,97184.63
2023-03-26T02:05:29.006Z,97180.38
2023-03-26T02:09:36.953Z,97177.91
2023-03-26T02:13:40.902Z,97173.75
2023-03-26T02:17:43.121Z,97165.00
2023-03-26T02:21:46.744Z,97165.97
2023-03-26T02:25:49.017Z,97163.84
2023-03-26T02:29:51.155Z,97147.59
2023-03-26T02:33:57.195Z,97146.72
2023-03-26T02:38:02.591Z,97143.38
2023-03-26T02:42:05.206Z,97144.25
2023-03-26T02:46:13.424Z,97133.69
2023-03-26T02:50:32.571Z,97125.84
2023-03-26T02:54:53.551Z,97117.31
2023-03-26T02:58:57.628Z,97113.78
2023-03-26T03:03:00.132Z,97101.81
2023-03-26T03:07:05.863Z,97102.06
2023-03-26T03:11:11.218Z,97116.06
2023-03-26T03:15:18.680Z,97110.09
2023-03-26T03:19:20.976Z,97106.84
2023-03-26T03:23:23.181Z,97107.81
2023-03-26T03:27:31.326Z,97097.53
2023-03-26T03:31:42.078Z,97086.47
2023-03-26T03:35:54.910Z,97084.00
2023-03-26T03:39:57.388Z,97079.81
2023-03-26T03:44:01.969Z,97074.69
2023-03-26T03:48:06.343Z,97075.53
2023-03-26T03:52:14.890Z,97068.47
2023-03-26T03:56:19.527Z,97056.94
2023-03-26T04:00:41.581Z,97055.94
2023-03-26T04:05:06.067Z,97039.25
2023-03-26T04:09:10.227Z,97029.44
2023-03-26T04:13:14.686Z,97027.75
2023-03-26T04:17:45.924Z,97024.22
2023-03-26T04:21:50.487Z,97019.00
2023-03-26T04:25:56.221Z,97008.47
2023-03-26T04:30:15.445Z,97008.97
2023-03-26T04:34:26.398Z,97011.41
2023-03-26T04:38:52.024Z,97009.44
2023-03-26T04:42:59.870Z,97005.75
2023-03-26T04:47:24.729Z,96999.41
2023-03-26T04:51:38.365Z,96990.47
2023-03-26T04:56:04.081Z,96981.09
2023-03-26T05:00:32.351Z,96976.56
2023-03-26T05:04:36.779Z,96963.97
2023-03-26T05:08:39.386Z,96955.31
2023-03-26T05:12:42.518Z,96942.97
2023-03-26T05:16:53.315Z,96924.78
2023-03-26T05:20:57.423Z,96920.63
2023-03-26T05:25:00.644Z,96916.50
2023-03-26T05:29:03.201Z,96903.50
2023-03-26T05:33:11.028Z,96904.59
2023-03-26T05:37:31.046Z,96891.53
2023-03-26T05:41:42.962Z,96888.53
2023-03-26T05:45:47.814Z,96881.63
2023-03-26T05:50:00.845Z,96886.72
2023-03-26T05:54:03.035Z,96886.53
2023-03-26T05:58:41.988Z,96868.03
2023-03-26T06:03:16.520Z,96870.44
2023-03-26T06:07:37.328Z,96855.63
2023-03-26T06:11:45.227Z,96843.41
2023-03-26T06:15:47.338Z,96845.84
2023-03-26T06:19:56.982Z,96837.66
2023-03-26T06:24:07.904Z,96821.75
2023-03-26T06:28:23.263Z,96815.94
2023-03-26T06:32:51.169Z,96818.00
2023-03-26T06:36:58.669Z,96818.34
2023-03-26T06:41:06.127Z,96811.72
2023-03-26T06:45:34.208Z,96803.72
2023-03-26T06:49:54.546Z,96803.88
2023-03-26T06:54:22.678Z,96799.22
2023-03-26T06:58:27.748Z,96796.84
2023-03-26T07:02:50.160Z,96781.44
2023-03-26T07:07:11.401Z,96781.44
2023-03-26T07:11:32.163Z,96785.22
2023-03-26T07:15:57.088Z,96774.84
2023-03-26T07:20:10.250Z,96776.53
2023-03-26T07:24:13.794Z,96773.69
2023-03-26T07:29:03.852Z,96778.22
2023-03-26T07:33:49.324Z,96767.13
2023-03-26T07:38:31.354Z,96762.75
2023-03-26T07:43:00.793Z,96749.44
2023-03-26T07:47:35.753Z,96742.59
2023-03-26T07:51:53.920Z,96730.63
2023-03-26T07:56:46.155Z,96730.69
2023-03-26T08:01:32.853Z,96725.22
2023-03-26T08:05:43.231Z,96717.41
2023-03-26T08:10:08.265Z,96718.34
2023-03-26T08:14:36.341Z,96718.00
2023-03-26T08:18:49.466Z,96714.53
2023-03-26T08:22:59.301Z,96709.63
2023-03-26T08:27:01.405Z,96707.25
2023-03-26T08:31:04.509Z,96708.31
2023-03-26T08:35:07.004Z,96702.09
2023-03-26T08:39:09.091Z,96707.88
2023-03-26T08:43:44.317Z,96700.72
2023-03-26T08:47:59.158Z,96701.41
2023-03-26T08:52:24.480Z,96687.25
2023-03-26T08:57:00.404Z,96680.66
2023-03-26T09:01:30.658Z,96673.25
2023-03-26T09:06:04.656Z,96653.84
2023-03-26T09:10:25.322Z,96647.94
2023-03-26T09:14:42.522Z,96642.72
2023-03-26T09:19:12.446Z,96645.06
2023-03-26T09:23:46.170Z,96644.81
2023-03-26T09:28:14.116Z,96644.88
2023-03-26T09:32:42.750Z,96636.47
2023-03-26T09:36:55.301Z,96630.44
2023-03-26T09:41:14.041Z,96628.69
2023-03-26T09:45:51.628Z,96614.13
2023-03-26T09:50:15.703Z,96621.81
2023-03-26T09:54:23.918Z,96624.56
2023-03-26T09:58:47.432Z,96608.75
2023-03-26T10:03:07.812Z,96617.50
2023-03-26T10:07:31.981Z,96617.31
2023-03-26T10:11:46.128Z,96605.19
2023-03-26T10:16:19.525Z,96594.41
2023-03-26T10:20:33.328Z,96593.94
2023-03-26T10:25:17.368Z,96591.47
2023-03-26T10:29:26.533Z,96593.53
2023-03-26T10:33:56.204Z,96579.50
2023-03-26T10:38:04.298Z,96586.44
2023-03-26T10:42:22.732Z,96568.03
2023-03-26T10:47:00.098Z,96576.25
2023-03-26T10:51:19.735Z,96549.88
2023-03-26T10:55:34.752Z,96556.19
2023-03-26T10:59:37.010Z,96547.09
2023-03-26T11:03:51.893Z,96541.50
2023-03-26T11:08:01.924Z,96561.22
2023-03-26T11:12:03.894Z,96551.19
2023-03-26T11:16:31.378Z,96543.81
2023-03-26T11:20:42.787Z,96550.53
2023-03-26T11:25:06.761Z,96545.50
2023-03-26T11:29:31.619Z,96548.03
2023-03-26T11:33:45.550Z,96545.28
2023-03-26T11:37:53.399Z,96540.22
2023-03-26T11:42:11.115Z,96529.09
2023-03-26T11:46:20.657Z,96524.00
2023-03-26T11:50:30.400Z,96525.13
2023-03-26T11:54:33.655Z,96515.03
2023-03-26T11:58:43.822Z,96514.44
2023-03-26T12:02:48.750Z,96507.59
2023-03-26T12:07:04.942Z,96508.69
2023-03-26T12:11:10.800Z,96504.13
2023-03-26T12:15:18.985Z,96501.53
2023-03-26T12:19:22.286Z,96494.44
2023-03-26T12:23:42.405Z,96485.44
2023-03-26T12:27:48.895Z,96487.66
2023-03-26T12:32:14.888Z,96486.22
2023-03-26T12:36:25.572Z,96477.25
2023-03-26T12:40:36.650Z,96473.59
2023-03-26T12:44:58.778Z,96464.28
2023-03-26T12:49:06.425Z,96459.50
2023-03-26T12:53:27.362Z,96457.84
2023-03-26T12:57:40.728Z,96453.94
2023-03-26T13:02:08.991Z,96454.53
2023-03-26T13:06:48.462Z,96447.09
2023-03-26T13:11:24.611Z,96448.06
2023-03-26T13:15:34.498Z,96444.88
2023-03-26T13:19:48.160Z,96436.72
2023-03-26T13:24:04.326Z,96438.19
2023-03-26T13:28:12.405Z,96437.69
2023-03-26T13:32:35.999Z,96425.75
2023-03-26T13:37:10.521Z,96405.63
2023-03-26T13:41:21.589Z,96412.22
2023-03-26T13:45:36.292Z,96397.94
2023-03-26T13:49:43.969Z,96386.75
2023-03-26T13:54:06.478Z,96386.13
2023-03-26T13:58:27.012Z,96388.47
2023-03-26T14:02:42.711Z,96372.91
2023-03-26T14:06:48.724Z,96368.97
2023-03-26T14:11:06.376Z,96356.13
2023-03-26T14:15:16.332Z,96369.66
2023-03-26T14:19:41.111Z,96367.00
2023-03-26T14:24:21.435Z,96371.09
2023-03-26T14:29:01.087Z,96382.19
2023-03-26T14:33:42.598Z,96420.06
2023-03-26T14:38:32.855Z,96399.38
2023-03-26T14:42:46.649Z,96371.69
2023-03-26T14:47:14.839Z,96376.22
2023-03-26T14:51:40.785Z,96377.78
2023-03-26T14:56:08.694Z,96384.72
2023-03-26T15:00:22.176Z,96392.44
2023-03-26T15:04:36.991Z,96405.16
2023-03-26T15:09:04.891Z,96407.13
2023-03-26T15:13:31.716Z,96388.88
2023-03-26T15:17:52.456Z,96410.00
2023-03-26T15:22:37.792Z,96428.59
2023-03-26T15:27:01.514Z,96483.94
2023-03-26T15:31:18.689Z,96484.38
2023-03-26T15:35:39.712Z,96486.56
2023-03-26T15:39:59.393Z,96493.94
2023-03-26T15:44:24.082Z,96499.22
2023-03-26T15:48:36.570Z,96490.28
2023-03-26T15:52:57.926Z,96484.38
2023-03-26T15:57:12.365Z,96465.81
2023-03-26T16:01:39.475Z,96459.00
2023-03-26T16:06:22.392Z,96456.59
2023-03-26T16:10:55.973Z,96458.25
2023-03-26T16:15:07.391Z,96458.06
2023-03-26T16:19:19.072Z,96454.13
2023-03-26T16:23:29.308Z,96469.63
2023-03-26T16:27:34.046Z,96458.59
2023-03-26T16:31:38.322Z,96469.97
2023-03-26T16:36:02.049Z,96473.72
2023-03-26T16:40:16.538Z,96487.94
2023-03-26T16:44:36.647Z,96487.47
2023-03-26T16:49:00.303Z,96504.75
2023-03-26T16:53:42.660Z,96512.41
2023-03-26T16:57:53.756Z,96513.41
2023-03-26T17:02:21.752Z,96516.16
2023-03-26T17:06:30.574Z,96513.06
2023-03-26T17:10:56.760Z,96517.09
2023-03-26T17:15:26.329Z,96528.09
2023-03-26T17:19:51.934Z,96532.00
2023-03-26T17:23:59.988Z,96532.56
2023-03-26T17:28:56.177Z,96538.34
2023-03-26T17:33:07.181Z,96543.78
2023-03-26T17:37:21.584Z,96542.38
2023-03-26T17:41:49.630Z,96549.31
2023-03-26T17:46:03.504Z,96550.50
2023-03-26T17:50:29.878Z,96555.44
2023-03-26T17:54:41.200Z,96558.53
2023-03-26T17:58:47.946Z,96555.88
2023-03-26T18:02:56.181Z,96556.03
2023-03-26T18:07:17.183Z,96562.75
2023-03-26T18:11:39.497Z,96558.63
2023-03-26T18:16:06.158Z,96561.50
2023-03-26T18:20:21.091Z,96568.88
2023-03-26T18:24:39.809Z,96566.44
2023-03-26T18:28:51.461Z,96565.09
2023-03-26T18:33:03.239Z,96573.59
2023-03-26T18:37:11.387Z,96569.75
2023-03-26T18:41:29.012Z,96574.31
2023-03-26T18:45:31.472Z,96587.28
2023-03-26T18:49:33.458Z,96589.19
2023-03-26T18:53:50.048Z,96590.88
2023-03-26T18:57:52.066Z,96585.84
2023-03-26T19:01:58.624Z,96588.91
2023-03-26T19:06:02.421Z,96590.50
2023-03-26T19:10:04.860Z,96592.25
2023-03-26T19:14:20.093Z,96600.78
2023-03-26T19:18:25.523Z,96611.63
2023-03-26T19:22:30.336Z,96614.66
2023-03-26T19:26:33.292Z,96618.44
2023-03-26T19:30:40.745Z,96623.19
2023-03-26T19:34:45.106Z,96631.16
2023-03-26T19:38:53.530Z,96628.78
2023-03-26T19:42:58.018Z,96625.09
2023-03-26T19:47:06.663Z,96629.63
2023-03-26T19:51:19.958Z,96636.78
2023-03-26T19:55:23.972Z,96638.59
2023-03-26T19:59:26.023Z,96646.44
2023-03-26T20:03:30.562Z,96655.78
2023-03-26T20:07:35.267Z,96659.00
2023-03-26T20:11:39.517Z,96653.03
2023-03-26T20:15:44.050Z,96664.38
2023-03-26T20:19:49.592Z,96676.41
2023-03-26T20:23:53.637Z,96690.16
2023-03-26T20:27:56.497Z,96698.44
2023-03-26T20:31:58.495Z,96704.97
2023-03-26T20:36:00.949Z,96712.75
2023-03-26T20:40:05.129Z,96720.03
2023-03-26T20:44:15.840Z,96728.06
2023-03-26T20:48:17.926Z,96734.13
2023-03-26T20:52:20.021Z,96736.38
2023-03-26T20:56:22.029Z,96748.50
2023-03-26T21:00:24.253Z,96746.31
2023-03-26T21:04:26.671Z,96752.88
2023-03-26T21:08:35.559Z,96766.31
2023-03-26T21:12:45.385Z,96775.88
2023-03-26T21:16:47.791Z,96785.81
2023-03-26T21:21:26.137Z,96787.06
2023-03-26T21:25:53.927Z,96805.28
2023-03-26T21:29:57.723Z,96808.75
2023-03-26T21:33:59.969Z,96820.00
2023-03-26T21:38:04.378Z,96826.81
2023-03-26T21:42:06.913Z,96835.47
2023-03-26T21:46:09.635Z,96838.50
2023-03-26T21:50:14.392Z,96847.72
2023-03-26T21:54:33.883Z,96869.47
2023-03-26T21:59:08.498Z,96877.63
2023-03-26T22:03:34.541Z,96887.00
2023-03-26T22:07:58.813Z,96888.16
2023-03-26T22:12:01.976Z,96903.13
2023-03-26T22:16:06.165Z,96906.75
2023-03-26T22:20:14.101Z,96919.81
2023-03-26T22:24:16.117Z,96929.63
2023-03-26T22:28:19.217Z,96938.84
2023-03-26T22:32:21.253Z,96950.06
2023-03-26T22:36:25.289Z,96960.72
2023-03-26T22:40:27.462Z,96968.63
2023-03-26T22:44:29.536Z,96973.28
2023-03-26T22:48:32.639Z,96991.44
2023-03-26T22:52:36.429Z,96995.41
2023-03-26T22:56:38.570Z,96997.88
2023-03-26T23:00:41.641Z,97014.72
2023-03-26T23:04:44.172Z,97029.91
2023-03-26T23:08:46.610Z,97040.78
2023-03-26T23:12:49.506Z,97053.19
2023-03-26T23:16:51.740Z,97072.59
2023-03-26T23:20:56.194Z,97073.78
2023-03-26T23:24:58.337Z,97079.94
2023-03-26T23:29:01.333Z,97079.31
2023-03-26T23:33:03.785Z,97090.69
2023-03-26T23:37:05.885Z,97092.59
2023-03-26T23:41:07.913Z,97108.31
2023-03-26T23:45:10.405Z,97118.69
2023-03-26T23:49:12.769Z,97115.44
2023-03-26T23:53:15.258Z,97132.09
2023-03-26T23:57:18.429Z,97146.06
